Time;durP1;ratioP1;P1;durP2;ratioP2;P2;SDS_P1;SDS_P2;PMS_P1;PMS_P2;Temp;Humidity;BMP_temperature;BMP_pressure;BME280_temperature;BME280_humidity;BME280_pressure;Samples;Min_cycle;Max_cycle;Signal;HPM_P1;HPM_P2
2023/11/16 00:02:24;;;;;;;15.52;6.68;;;;;;;;;;5078867;28;20020;-62
2023/11/16 00:04:50;;;;;;;10.63;6.20;;;;;;;;;;5078806;28;20474;-61
2023/11/16 00:07:16;;;;;;;13.73;7.15;;;;;;;;;;5081092;28;20028;-64
2023/11/16 00:09:42;;;;;;;10.65;6.60;;;;;;;;;;5080446;28;20025;-64
2023/11/16 00:12:08;;;;;;;11.07;6.93;;;;;;;;;;5081323;28;20059;-65
2023/11/16 00:14:34;;;;;;;12.32;6.80;;;;;;;;;;5080456;28;20090;-64
2023/11/16 00:17:01;;;;;;;12.45;7.05;;;;;;;;;;5079575;28;20032;-65
2023/11/16 00:19:27;;;;;;;11.80;6.70;;;;;;;;;;5081037;28;20158;-65
2023/11/16 00:21:53;;;;;;;15.63;7.15;;;;;;;;;;5079765;28;20073;-66
2023/11/16 00:24:20;;;;;;;10.00;5.90;;;;;;;;;;5080262;28;20470;-64
2023/11/16 00:26:46;;;;;;;10.93;6.45;;;;;;;;;;5080443;28;20490;-69
2023/11/16 00:29:12;;;;;;;11.32;6.40;;;;;;;;;;5078293;28;20067;-66
2023/11/16 00:31:39;;;;;;;13.10;7.15;;;;;;;;;;5079912;28;20029;-63
2023/11/16 00:34:05;;;;;;;11.65;6.85;;;;;;;;;;5080196;28;20032;-62
2023/11/16 00:36:31;;;;;;;16.27;7.22;;;;;;;;;;5080339;28;20029;-65
2023/11/16 00:38:58;;;;;;;13.65;7.15;;;;;;;;;;5080467;28;20094;-61
2023/11/16 00:41:24;;;;;;;11.52;6.57;;;;;;;;;;5079790;28;20031;-62
2023/11/16 00:43:50;;;;;;;10.40;6.10;;;;;;;;;;5080016;28;20024;-65
2023/11/16 00:46:16;;;;;;;11.35;6.63;;;;;;;;;;5079080;28;20115;-66
2023/11/16 00:48:43;;;;;;;10.93;6.30;;;;;;;;;;5078500;28;20028;-65
2023/11/16 00:51:12;;;;;;;10.63;6.20;;;;;;;;;;5079304;28;20174;-65
2023/11/16 00:53:42;;;;;;;12.20;6.97;;;;;;;;;;5078726;28;20100;-59
2023/11/16 00:56:09;;;;;;;14.70;6.80;;;;;;;;;;5080568;28;20024;-65
2023/11/16 00:58:35;;;;;;;13.55;7.05;;;;;;;;;;5081104;28;20035;-65
2023/11/16 01:01:01;;;;;;;10.48;6.15;;;;;;;;;;5080029;28;20077;-63
2023/11/16 01:03:27;;;;;;;15.25;8.35;;;;;;;;;;5064897;28;20044;-58
2023/11/16 01:06:16;;;;;;;14.32;7.22;;;;;;;;;;5079866;28;20445;-60
2023/11/16 01:08:42;;;;;;;11.55;6.70;;;;;;;;;;5065706;28;20045;-65
2023/11/16 01:11:09;;;;;;;12.05;7.20;;;;;;;;;;5076928;28;20422;-62
2023/11/16 01:13:38;;;;;;;14.35;6.80;;;;;;;;;;5078335;28;20036;-61
2023/11/16 01:16:15;;;;;;;16.55;8.80;;;;;;;;;;5061119;28;20057;-65
2023/11/16 01:18:51;;;;;;;13.80;7.30;;;;;;;;;;5081081;28;20055;-64
2023/11/16 01:21:18;;;;;;;11.57;6.72;;;;;;;;;;5080707;28;20020;-64
2023/11/16 01:23:46;;;;;;;11.30;6.70;;;;;;;;;;5082054;28;20020;-63
2023/11/16 01:26:20;;;;;;;11.35;6.65;;;;;;;;;;5081537;28;20040;-65
2023/11/16 01:28:49;;;;;;;13.27;6.95;;;;;;;;;;5062662;28;20035;-64
2023/11/16 01:31:16;;;;;;;12.05;7.85;;;;;;;;;;5062529;28;20021;-66
2023/11/16 01:33:42;;;;;;;11.73;6.75;;;;;;;;;;5084042;28;20067;-63
2023/11/16 01:36:09;;;;;;;16.65;7.60;;;;;;;;;;5084147;28;20088;-63
2023/11/16 01:38:36;;;;;;;11.30;6.65;;;;;;;;;;5084645;28;20039;-64
2023/11/16 01:41:03;;;;;;;12.45;7.00;;;;;;;;;;5083892;28;20132;-65
2023/11/16 01:43:32;;;;;;;11.60;6.70;;;;;;;;;;5084506;28;20395;-65
2023/11/16 01:45:58;;;;;;;14.25;7.57;;;;;;;;;;5083324;28;20092;-64
2023/11/16 01:48:25;;;;;;;12.18;7.07;;;;;;;;;;5066409;28;20176;-65
2023/11/16 01:50:51;;;;;;;13.13;7.00;;;;;;;;;;5082804;28;20082;-65
2023/11/16 01:53:18;;;;;;;12.00;7.00;;;;;;;;;;5083040;28;20031;-64
2023/11/16 01:55:45;;;;;;;11.00;6.45;;;;;;;;;;5083718;28;20028;-66
2023/11/16 01:58:11;;;;;;;18.50;8.52;;;;;;;;;;5083720;28;20487;-64
2023/11/16 02:00:42;;;;;;;11.05;6.50;;;;;;;;;;5083086;28;20035;-57
2023/11/16 02:03:09;;;;;;;12.85;6.72;;;;;;;;;;5066131;28;20017;-62
2023/11/16 02:05:38;;;;;;;11.40;6.60;;;;;;;;;;5066129;28;20027;-62
2023/11/16 02:08:08;;;;;;;12.82;7.20;;;;;;;;;;5083477;28;20048;-65
2023/11/16 02:10:35;;;;;;;27.05;9.05;;;;;;;;;;5082641;28;20039;-65
2023/11/16 02:13:03;;;;;;;12.20;7.15;;;;;;;;;;5065300;28;20079;-64
2023/11/16 02:15:30;;;;;;;14.05;7.25;;;;;;;;;;5083422;28;20028;-64
2023/11/16 02:17:56;;;;;;;14.35;7.93;;;;;;;;;;5083167;28;20031;-65
2023/11/16 02:20:25;;;;;;;11.50;6.80;;;;;;;;;;5064937;28;20017;-63
2023/11/16 02:22:50;;;;;;;;;;;;;;;;;;5083894;28;20175;-61
2023/11/16 02:25:17;;;;;;;13.02;7.25;;;;;;;;;;5081010;28;19905;-63
2023/11/16 02:27:43;;;;;;;16.85;7.10;;;;;;;;;;5080414;28;20029;-63
2023/11/16 02:30:10;;;;;;;30.77;7.63;;;;;;;;;;5062358;28;20478;-62
2023/11/16 02:32:36;;;;;;;11.85;6.50;;;;;;;;;;5064679;28;20021;-65
2023/11/16 02:35:02;;;;;;;11.38;6.53;;;;;;;;;;5083056;28;20033;-65
2023/11/16 02:37:29;;;;;;;11.88;7.00;;;;;;;;;;5065237;28;20032;-65
2023/11/16 02:39:56;;;;;;;10.77;6.30;;;;;;;;;;5081236;28;20308;-63
2023/11/16 02:42:22;;;;;;;10.35;6.10;;;;;;;;;;5080833;28;20027;-64
2023/11/16 02:44:48;;;;;;;11.57;6.30;;;;;;;;;;5080171;28;20092;-66
2023/11/16 02:47:15;;;;;;;14.95;7.07;;;;;;;;;;5082309;28;20051;-64
2023/11/16 02:49:44;;;;;;;11.82;6.70;;;;;;;;;;5081867;28;20020;-62
2023/11/16 02:52:10;;;;;;;12.00;6.00;;;;;;;;;;5064959;28;20259;-67
2023/11/16 02:54:38;;;;;;;11.60;6.53;;;;;;;;;;5081570;28;20129;-62
2023/11/16 02:57:07;;;;;;;12.00;6.95;;;;;;;;;;5064245;28;20429;-61
2023/11/16 02:59:33;;;;;;;10.38;6.07;;;;;;;;;;5064574;28;20024;-64
2023/11/16 03:01:59;;;;;;;10.73;6.32;;;;;;;;;;5080059;28;20024;-64
2023/11/16 03:04:25;;;;;;;10.73;6.40;;;;;;;;;;5080572;28;20553;-64
2023/11/16 03:06:54;;;;;;;10.40;6.10;;;;;;;;;;5064885;28;20051;-65
2023/11/16 03:09:20;;;;;;;10.55;6.13;;;;;;;;;;5083018;28;20468;-63
2023/11/16 03:11:46;;;;;;;18.98;7.50;;;;;;;;;;5082518;28;20029;-65
2023/11/16 03:14:13;;;;;;;12.18;6.80;;;;;;;;;;5082680;28;20489;-64
2023/11/16 03:16:49;;;;;;;11.20;6.60;;;;;;;;;;5062640;28;20032;-64
2023/11/16 03:19:16;;;;;;;10.52;6.18;;;;;;;;;;5079542;28;20031;-64
2023/11/16 03:21:42;;;;;;;11.40;6.50;;;;;;;;;;5081724;28;20554;-63
2023/11/16 03:24:09;;;;;;;10.98;7.55;;;;;;;;;;5082308;28;20188;-64
2023/11/16 03:26:35;;;;;;;10.45;6.10;;;;;;;;;;5082720;28;20044;-62
2023/11/16 03:29:01;;;;;;;10.30;6.00;;;;;;;;;;5082250;28;20032;-65
2023/11/16 03:31:27;;;;;;;10.80;6.30;;;;;;;;;;5081484;28;20024;-63
2023/11/16 03:33:53;;;;;;;11.00;6.55;;;;;;;;;;5081701;28;20550;-64
2023/11/16 03:36:19;;;;;;;10.52;6.28;;;;;;;;;;5081811;28;20039;-61
2023/11/16 03:38:47;;;;;;;11.93;7.30;;;;;;;;;;5083147;28;20135;-59
2023/11/16 03:41:13;;;;;;;12.65;6.32;;;;;;;;;;5063657;28;20490;-64
2023/11/16 03:43:40;;;;;;;13.73;6.78;;;;;;;;;;5064113;28;20067;-64
2023/11/16 03:46:09;;;;;;;10.75;6.40;;;;;;;;;;5081490;28;20020;-64
2023/11/16 03:48:35;;;;;;;10.75;6.22;;;;;;;;;;5064126;28;20036;-60
2023/11/16 03:51:04;;;;;;;11.15;6.53;;;;;;;;;;5080935;28;20032;-64
2023/11/16 03:53:31;;;;;;;15.50;7.50;;;;;;;;;;5079986;28;20024;-64
2023/11/16 03:55:59;;;;;;;10.55;6.03;;;;;;;;;;5081217;28;20028;-64
2023/11/16 03:58:25;;;;;;;10.93;6.28;;;;;;;;;;5082400;28;20056;-65
2023/11/16 04:00:52;;;;;;;10.20;5.93;;;;;;;;;;5080923;28;20029;-66
2023/11/16 04:03:20;;;;;;;10.65;5.95;;;;;;;;;;5081689;28;20080;-65
2023/11/16 04:05:46;;;;;;;9.23;5.45;;;;;;;;;;5082250;28;20167;-63
2023/11/16 04:08:12;;;;;;;9.80;5.70;;;;;;;;;;5064489;28;20612;-62
2023/11/16 04:10:38;;;;;;;15.52;7.43;;;;;;;;;;5081271;28;20652;-63
2023/11/16 04:13:05;;;;;;;13.82;6.57;;;;;;;;;;5063828;28;20056;-64
2023/11/16 04:15:31;;;;;;;16.30;7.20;;;;;;;;;;5081006;28;20504;-64
2023/11/16 04:17:57;;;;;;;10.88;6.53;;;;;;;;;;5081879;28;20028;-65
2023/11/16 04:20:23;;;;;;;11.48;6.22;;;;;;;;;;5080900;28;20045;-65
2023/11/16 04:22:49;;;;;;;10.00;6.03;;;;;;;;;;5081807;28;20031;-65
2023/11/16 04:25:29;;;;;;;11.13;6.38;;;;;;;;;;5081079;28;20502;-65
2023/11/16 04:28:04;;;;;;;12.73;8.05;;;;;;;;;;5082589;28;20556;-65
2023/11/16 04:30:30;;;;;;;10.27;6.03;;;;;;;;;;5080891;28;20513;-63
2023/11/16 04:32:57;;;;;;;9.35;5.70;;;;;;;;;;5081192;28;20024;-64
2023/11/16 04:35:23;;;;;;;9.25;5.50;;;;;;;;;;5081264;28;20021;-63
2023/11/16 04:37:50;;;;;;;9.63;5.57;;;;;;;;;;5081632;28;20024;-66
2023/11/16 04:40:16;;;;;;;14.82;7.35;;;;;;;;;;5078901;28;20059;-64
2023/11/16 04:42:43;;;;;;;7.60;4.50;;;;;;;;;;5059737;28;20079;-64
2023/11/16 04:45:12;;;;;;;7.72;4.63;;;;;;;;;;5077878;28;20020;-65
2023/11/16 04:47:44;;;;;;;11.02;5.68;;;;;;;;;;5078084;28;20473;-63
2023/11/16 04:50:10;;;;;;;12.18;6.95;;;;;;;;;;5077396;28;20016;-63
2023/11/16 04:52:36;;;;;;;9.60;5.15;;;;;;;;;;5077230;28;20608;-64
2023/11/16 04:55:03;;;;;;;12.48;6.28;;;;;;;;;;5079681;28;20418;-65
2023/11/16 04:57:29;;;;;;;9.88;5.00;;;;;;;;;;5080346;28;20107;-66
2023/11/16 04:59:55;;;;;;;10.65;5.70;;;;;;;;;;5080254;28;20086;-66
2023/11/16 05:02:22;;;;;;;16.60;7.18;;;;;;;;;;5081250;28;20029;-65
2023/11/16 05:04:49;;;;;;;12.93;6.03;;;;;;;;;;5062035;28;20031;-63
2023/11/16 05:07:15;;;;;;;9.70;5.63;;;;;;;;;;5082226;28;20048;-61
2023/11/16 05:09:41;;;;;;;18.65;6.78;;;;;;;;;;5084747;28;20040;-65
2023/11/16 05:12:08;;;;;;;9.63;5.82;;;;;;;;;;5084122;28;20028;-63
2023/11/16 05:14:34;;;;;;;10.52;6.35;;;;;;;;;;5084120;28;20024;-64
2023/11/16 05:17:01;;;;;;;12.32;6.80;;;;;;;;;;5085429;28;20039;-65
2023/11/16 05:19:27;;;;;;;12.52;6.43;;;;;;;;;;5086500;28;20032;-66
2023/11/16 05:21:53;;;;;;;10.68;6.03;;;;;;;;;;5083039;28;20025;-64
2023/11/16 05:24:20;;;;;;;10.43;6.30;;;;;;;;;;5083109;28;20204;-63
2023/11/16 05:26:46;;;;;;;10.10;5.75;;;;;;;;;;5084603;28;20058;-59
2023/11/16 05:29:12;;;;;;;13.18;6.95;;;;;;;;;;5082200;28;20118;-63
2023/11/16 05:31:38;;;;;;;9.77;5.85;;;;;;;;;;5084173;28;20050;-63
2023/11/16 05:34:07;;;;;;;9.55;5.90;;;;;;;;;;5084035;28;20030;-61
2023/11/16 05:36:34;;;;;;;9.77;6.43;;;;;;;;;;5083647;28;20088;-66
2023/11/16 05:39:01;;;;;;;11.23;5.68;;;;;;;;;;5084238;28;20021;-65
2023/11/16 05:41:27;;;;;;;12.82;5.88;;;;;;;;;;5082936;28;20028;-64
2023/11/16 05:43:53;;;;;;;9.32;5.45;;;;;;;;;;5083849;28;20036;-61
2023/11/16 05:46:19;;;;;;;9.48;5.45;;;;;;;;;;5083405;28;20051;-59
2023/11/16 05:48:45;;;;;;;11.35;5.75;;;;;;;;;;5083610;28;20020;-58
2023/11/16 05:51:12;;;;;;;10.35;5.90;;;;;;;;;;5064784;28;20108;-62
2023/11/16 05:53:38;;;;;;;17.73;7.00;;;;;;;;;;5083656;28;20044;-63
2023/11/16 05:56:04;;;;;;;10.68;6.93;;;;;;;;;;5065170;28;20021;-64
2023/11/16 05:58:30;;;;;;;9.77;5.47;;;;;;;;;;5082796;28;20035;-64
2023/11/16 06:00:56;;;;;;;9.85;5.82;;;;;;;;;;5064609;28;20383;-64
2023/11/16 06:03:27;;;;;;;9.90;5.60;;;;;;;;;;5082946;28;20030;-63
2023/11/16 06:05:53;;;;;;;11.32;6.55;;;;;;;;;;5063842;28;20025;-64
2023/11/16 06:08:20;;;;;;;15.25;6.07;;;;;;;;;;5081515;28;20047;-63
2023/11/16 06:10:47;;;;;;;7.60;4.50;;;;;;;;;;5080575;28;20101;-63
2023/11/16 06:13:14;;;;;;;8.18;4.85;;;;;;;;;;5082358;28;20080;-65
2023/11/16 06:15:41;;;;;;;8.27;4.87;;;;;;;;;;5082377;28;20016;-59
2023/11/16 06:18:06;;;;;;;7.93;4.75;;;;;;;;;;5081960;28;20034;-61
2023/11/16 06:20:33;;;;;;;8.20;4.60;;;;;;;;;;5081751;28;20450;-60
2023/11/16 06:23:00;;;;;;;8.80;4.80;;;;;;;;;;5082611;28;20045;-65
2023/11/16 06:25:26;;;;;;;9.18;5.22;;;;;;;;;;5081911;28;20110;-65
2023/11/16 06:27:52;;;;;;;7.47;4.45;;;;;;;;;;5082705;28;20032;-65
2023/11/16 06:30:18;;;;;;;7.95;4.88;;;;;;;;;;5081237;28;20024;-64
2023/11/16 06:32:44;;;;;;;7.40;4.45;;;;;;;;;;5082398;28;20220;-64
2023/11/16 06:35:11;;;;;;;11.68;5.70;;;;;;;;;;5063495;28;20027;-64
2023/11/16 06:37:37;;;;;;;8.02;4.78;;;;;;;;;;5081147;28;20084;-65
2023/11/16 06:40:04;;;;;;;8.82;5.13;;;;;;;;;;5081080;28;20040;-67
2023/11/16 06:42:31;;;;;;;21.38;6.97;;;;;;;;;;5082100;28;20017;-63
2023/11/16 06:44:58;;;;;;;7.70;4.60;;;;;;;;;;5063267;28;20029;-66
2023/11/16 06:47:24;;;;;;;7.50;4.40;;;;;;;;;;5080750;28;20036;-66
2023/11/16 06:49:50;;;;;;;9.52;5.10;;;;;;;;;;5079891;28;20039;-66
2023/11/16 06:52:19;;;;;;;11.38;6.75;;;;;;;;;;5081833;28;20032;-63
2023/11/16 06:54:45;;;;;;;12.07;7.32;;;;;;;;;;5080999;28;20127;-61
2023/11/16 06:57:13;;;;;;;13.88;8.05;;;;;;;;;;5081193;28;20020;-62
2023/11/16 06:59:42;;;;;;;8.77;5.10;;;;;;;;;;5062686;28;20481;-63
2023/11/16 07:02:08;;;;;;;9.65;5.72;;;;;;;;;;5082574;28;20270;-65
2023/11/16 07:04:37;;;;;;;12.43;6.85;;;;;;;;;;5082372;28;20069;-63
2023/11/16 07:07:04;;;;;;;9.18;5.60;;;;;;;;;;5082533;28;20073;-65
2023/11/16 07:09:30;;;;;;;9.68;5.88;;;;;;;;;;5062979;28;20074;-64
2023/11/16 07:11:59;;;;;;;7.90;4.65;;;;;;;;;;5080673;28;20035;-63
2023/11/16 07:14:25;;;;;;;8.90;5.22;;;;;;;;;;5063840;28;20502;-64
2023/11/16 07:16:53;;;;;;;11.65;5.68;;;;;;;;;;5081249;28;20047;-67
2023/11/16 07:19:19;;;;;;;8.20;5.45;;;;;;;;;;5062666;28;20040;-62
2023/11/16 07:21:45;;;;;;;9.48;5.53;;;;;;;;;;5063659;28;20534;-64
2023/11/16 07:24:11;;;;;;;12.88;7.30;;;;;;;;;;5063719;28;20104;-61
2023/11/16 07:26:40;;;;;;;7.40;4.38;;;;;;;;;;5080733;28;20028;-56
2023/11/16 07:29:06;;;;;;;8.80;5.07;;;;;;;;;;5080639;28;20017;-64
2023/11/16 07:31:34;;;;;;;9.48;5.40;;;;;;;;;;5080008;28;20048;-65
2023/11/16 07:34:01;;;;;;;7.50;4.50;;;;;;;;;;5080695;28;20024;-58
2023/11/16 07:36:27;;;;;;;7.82;4.68;;;;;;;;;;5063917;28;20574;-65
2023/11/16 07:38:54;;;;;;;9.25;5.20;;;;;;;;;;5063495;28;20082;-63
2023/11/16 07:41:20;;;;;;;7.03;4.20;;;;;;;;;;5078496;28;20561;-64
2023/11/16 07:43:46;;;;;;;10.85;5.38;;;;;;;;;;5068553;28;20033;-64
2023/11/16 07:46:13;;;;;;;8.60;5.28;;;;;;;;;;5077521;28;20021;-64
2023/11/16 07:48:40;;;;;;;9.15;4.95;;;;;;;;;;5061654;28;20059;-65
2023/11/16 07:51:07;;;;;;;7.40;4.40;;;;;;;;;;5046777;28;20020;-62
2023/11/16 07:53:33;;;;;;;10.75;6.18;;;;;;;;;;5079332;28;20032;-61
2023/11/16 07:56:05;;;;;;;12.48;6.90;;;;;;;;;;5079388;28;20024;-64
2023/11/16 07:58:33;;;;;;;8.45;5.00;;;;;;;;;;5078764;28;20071;-64
2023/11/16 08:01:04;;;;;;;7.88;4.53;;;;;;;;;;5063899;28;20025;-61
2023/11/16 08:03:43;;;;;;;7.43;4.43;;;;;;;;;;5061436;28;20014;-56
2023/11/16 08:06:14;;;;;;;7.43;4.40;;;;;;;;;;5061042;28;20029;-65
2023/11/16 08:08:45;;;;;;;7.65;4.60;;;;;;;;;;5060918;28;20036;-66
2023/11/16 08:11:11;;;;;;;7.45;4.45;;;;;;;;;;5041784;28;20097;-63
2023/11/16 08:13:41;;;;;;;9.52;6.40;;;;;;;;;;5042219;28;20025;-65
2023/11/16 08:16:09;;;;;;;7.60;4.50;;;;;;;;;;5060466;28;20082;-65
2023/11/16 08:18:37;;;;;;;9.00;5.88;;;;;;;;;;5080517;28;20102;-63
2023/11/16 08:21:06;;;;;;;8.30;4.97;;;;;;;;;;5080208;28;20017;-63
2023/11/16 08:23:33;;;;;;;9.77;5.30;;;;;;;;;;5079567;28;20016;-66
2023/11/16 08:25:59;;;;;;;16.60;10.07;;;;;;;;;;5059706;28;20033;-59
2023/11/16 08:28:28;;;;;;;8.40;5.00;;;;;;;;;;5077866;28;20043;-64
2023/11/16 08:30:54;;;;;;;8.88;5.45;;;;;;;;;;5076578;28;20074;-65
2023/11/16 08:33:20;;;;;;;8.43;4.90;;;;;;;;;;5076882;28;20033;-65
2023/11/16 08:35:47;;;;;;;9.07;5.93;;;;;;;;;;5076622;28;20070;-64
2023/11/16 08:38:14;;;;;;;11.52;7.20;;;;;;;;;;5077991;28;20016;-59
2023/11/16 08:40:41;;;;;;;8.80;5.20;;;;;;;;;;5078791;28;20020;-64
2023/11/16 08:43:10;;;;;;;8.77;5.20;;;;;;;;;;5071270;28;20032;-62
2023/11/16 08:45:37;;;;;;;8.05;4.80;;;;;;;;;;5069936;28;20411;-59
2023/11/16 08:48:03;;;;;;;11.32;6.55;;;;;;;;;;5070033;28;20036;-57
2023/11/16 08:50:29;;;;;;;8.80;5.38;;;;;;;;;;5068939;28;20387;-54
2023/11/16 08:52:57;;;;;;;9.13;5.47;;;;;;;;;;5068413;28;20036;-58
2023/11/16 08:55:23;;;;;;;9.20;5.40;;;;;;;;;;5069425;28;20111;-56
2023/11/16 08:57:56;;;;;;;9.07;5.38;;;;;;;;;;5069730;28;20387;-57
2023/11/16 09:00:28;;;;;;;9.40;6.57;;;;;;;;;;5050501;28;20032;-54
2023/11/16 09:03:01;;;;;;;8.50;5.10;;;;;;;;;;5069229;28;20104;-54
2023/11/16 09:05:32;;;;;;;8.98;5.32;;;;;;;;;;5069171;28;20028;-57
2023/11/16 09:07:59;;;;;;;8.50;5.00;;;;;;;;;;5069478;28;20107;-51
2023/11/16 09:10:25;;;;;;;8.80;5.28;;;;;;;;;;5068072;28;20047;-55
2023/11/16 09:12:55;;;;;;;8.77;5.18;;;;;;;;;;5068699;28;20537;-56
2023/11/16 09:15:22;;;;;;;8.45;5.00;;;;;;;;;;5068454;28;20021;-54
2023/11/16 09:17:49;;;;;;;8.45;5.10;;;;;;;;;;5067640;28;20083;-55
2023/11/16 09:20:18;;;;;;;8.97;5.30;;;;;;;;;;5065602;28;20028;-57
2023/11/16 09:22:50;;;;;;;9.13;5.40;;;;;;;;;;5068707;28;20105;-54
2023/11/16 09:25:19;;;;;;;9.10;5.40;;;;;;;;;;5068567;28;20020;-57
2023/11/16 09:27:54;;;;;;;9.18;5.40;;;;;;;;;;5068007;28;20024;-55
2023/11/16 09:30:22;;;;;;;10.93;7.05;;;;;;;;;;5066697;28;20029;-56
2023/11/16 09:32:50;;;;;;;10.18;6.00;;;;;;;;;;5061694;28;20028;-56
2023/11/16 09:35:21;;;;;;;9.75;5.75;;;;;;;;;;5061001;28;20024;-57
2023/11/16 09:37:48;;;;;;;11.02;6.40;;;;;;;;;;5057689;28;20067;-58
2023/11/16 09:40:14;;;;;;;10.30;6.00;;;;;;;;;;5062689;28;20024;-54
2023/11/16 09:42:44;;;;;;;10.35;6.05;;;;;;;;;;5063995;28;20016;-53
2023/11/16 09:45:10;;;;;;;10.55;6.50;;;;;;;;;;5056292;28;20058;-56
2023/11/16 09:47:44;;;;;;;10.10;5.97;;;;;;;;;;5068780;28;20040;-53
2023/11/16 09:50:10;;;;;;;10.50;6.18;;;;;;;;;;5067729;28;20012;-57
2023/11/16 09:52:39;;;;;;;10.35;6.07;;;;;;;;;;5051088;28;20016;-50
2023/11/16 09:55:09;;;;;;;10.55;6.22;;;;;;;;;;5072026;28;20021;-57
2023/11/16 09:57:42;;;;;;;10.95;6.40;;;;;;;;;;5075949;28;20005;-54
2023/11/16 10:00:15;;;;;;;10.90;6.40;;;;;;;;;;5061084;28;20454;-54
2023/11/16 10:02:55;;;;;;;11.32;6.63;;;;;;;;;;5067302;28;20185;-53
2023/11/16 10:05:31;;;;;;;12.20;7.13;;;;;;;;;;5072905;28;20023;-58
2023/11/16 10:08:01;;;;;;;12.18;7.10;;;;;;;;;;5071987;28;20020;-58
2023/11/16 10:10:33;;;;;;;12.18;7.13;;;;;;;;;;5053466;28;20486;-56
2023/11/16 10:12:59;;;;;;;12.93;8.30;;;;;;;;;;5071979;28;20016;-57
2023/11/16 10:15:25;;;;;;;13.77;8.52;;;;;;;;;;5071930;28;20470;-57
2023/11/16 10:17:51;;;;;;;12.10;7.10;;;;;;;;;;5071945;28;20415;-58
2023/11/16 10:20:18;;;;;;;11.57;6.75;;;;;;;;;;5071026;28;20065;-55
2023/11/16 10:22:45;;;;;;;11.52;6.72;;;;;;;;;;5066589;28;20028;-55
2023/11/16 10:25:11;;;;;;;12.10;7.05;;;;;;;;;;5065805;28;20071;-59
2023/11/16 10:27:38;;;;;;;11.57;6.80;;;;;;;;;;5068507;28;20103;-57
2023/11/16 10:30:04;;;;;;;14.32;10.27;;;;;;;;;;5052838;28;20028;-56
2023/11/16 10:32:32;;;;;;;12.20;7.10;;;;;;;;;;5068398;28;20418;-54
2023/11/16 10:35:00;;;;;;;12.90;7.57;;;;;;;;;;5047688;28;20108;-54
2023/11/16 10:37:28;;;;;;;12.48;7.63;;;;;;;;;;5068711;28;20017;-54
2023/11/16 10:39:54;;;;;;;12.80;7.50;;;;;;;;;;5065178;28;20095;-59
2023/11/16 10:42:21;;;;;;;13.18;7.70;;;;;;;;;;5061953;28;20087;-56
2023/11/16 10:44:51;;;;;;;12.88;7.55;;;;;;;;;;5071546;28;20060;-56
2023/11/16 10:47:17;;;;;;;13.25;7.72;;;;;;;;;;5070412;28;20409;-55
2023/11/16 10:49:43;;;;;;;13.00;7.55;;;;;;;;;;5051660;28;20036;-55
2023/11/16 10:52:14;;;;;;;13.38;7.90;;;;;;;;;;5053261;28;20067;-56
2023/11/16 10:54:43;;;;;;;13.25;7.80;;;;;;;;;;5053448;28;20183;-57
2023/11/16 10:57:13;;;;;;;12.88;7.50;;;;;;;;;;5053279;28;20069;-57
2023/11/16 10:59:44;;;;;;;12.82;7.47;;;;;;;;;;5052550;28;20551;-56
2023/11/16 11:02:10;;;;;;;12.55;7.30;;;;;;;;;;5052787;28;20497;-53
2023/11/16 11:04:37;;;;;;;11.38;6.60;;;;;;;;;;5069750;28;20036;-57
2023/11/16 11:07:08;;;;;;;12.80;7.97;;;;;;;;;;5053152;28;20025;-58
2023/11/16 11:09:42;;;;;;;12.60;7.30;;;;;;;;;;5052749;28;20512;-57
2023/11/16 11:12:13;;;;;;;12.85;7.53;;;;;;;;;;5052881;28;20024;-54
2023/11/16 11:14:52;;;;;;;12.38;7.25;;;;;;;;;;5052598;28;20137;-56
2023/11/16 11:17:26;;;;;;;11.80;6.90;;;;;;;;;;5052899;28;20050;-57
2023/11/16 11:19:56;;;;;;;16.58;12.70;;;;;;;;;;5052244;28;20024;-57
2023/11/16 11:22:27;;;;;;;12.50;7.30;;;;;;;;;;5052555;28;20020;-55
2023/11/16 11:24:53;;;;;;;12.77;7.47;;;;;;;;;;5052615;28;20027;-58
2023/11/16 11:27:25;;;;;;;12.75;7.43;;;;;;;;;;5052735;28;20561;-57
2023/11/16 11:29:51;;;;;;;13.15;7.93;;;;;;;;;;5069487;28;20439;-55
2023/11/16 11:32:25;;;;;;;13.35;7.88;;;;;;;;;;5065895;28;20053;-54
2023/11/16 11:34:52;;;;;;;13.38;7.90;;;;;;;;;;5052489;28;20095;-57
2023/11/16 11:37:18;;;;;;;13.32;7.93;;;;;;;;;;5070659;28;20024;-55
2023/11/16 11:39:48;;;;;;;13.25;7.90;;;;;;;;;;5069615;28;20031;-60
2023/11/16 11:42:16;;;;;;;12.95;7.65;;;;;;;;;;5052649;28;20374;-55
2023/11/16 11:44:52;;;;;;;13.25;7.78;;;;;;;;;;5063710;28;20016;-54
2023/11/16 11:47:19;;;;;;;12.75;7.40;;;;;;;;;;5069558;28;20044;-54
2023/11/16 11:49:46;;;;;;;13.02;7.65;;;;;;;;;;5069236;28;20091;-55
2023/11/16 11:52:12;;;;;;;13.32;8.00;;;;;;;;;;5069976;28;20031;-57
2023/11/16 11:54:41;;;;;;;13.40;8.02;;;;;;;;;;5051786;28;20024;-55
2023/11/16 11:57:06;;;;;;;;;;;;;;;;;;5072424;28;20016;-56
2023/11/16 11:59:35;;;;;;;13.38;8.00;;;;;;;;;;5065621;28;19929;-54
2023/11/16 12:02:08;;;;;;;12.60;7.38;;;;;;;;;;5056239;28;20706;-57
2023/11/16 12:04:35;;;;;;;12.75;7.40;;;;;;;;;;5051360;28;20063;-56
2023/11/16 12:07:07;;;;;;;12.80;7.43;;;;;;;;;;5070609;28;20024;-55
2023/11/16 12:09:49;;;;;;;13.05;7.65;;;;;;;;;;5052409;28;20470;-57
2023/11/16 12:12:15;;;;;;;12.93;7.50;;;;;;;;;;5073692;28;20017;-56
2023/11/16 12:14:49;;;;;;;13.10;7.60;;;;;;;;;;5072308;28;20074;-56
2023/11/16 12:17:16;;;;;;;13.40;8.00;;;;;;;;;;5070098;28;20131;-56
2023/11/16 12:19:42;;;;;;;13.45;8.38;;;;;;;;;;5069320;28;20019;-57
2023/11/16 12:22:12;;;;;;;13.27;7.78;;;;;;;;;;5068571;28;20470;-60
2023/11/16 12:24:38;;;;;;;13.30;7.85;;;;;;;;;;5069509;28;20021;-56
2023/11/16 12:27:05;;;;;;;13.07;7.60;;;;;;;;;;5051510;28;20032;-58
2023/11/16 12:29:31;;;;;;;12.70;7.35;;;;;;;;;;5060130;28;20474;-57
2023/11/16 12:31:57;;;;;;;13.13;7.70;;;;;;;;;;5068099;28;20036;-58
2023/11/16 12:34:24;;;;;;;12.85;7.47;;;;;;;;;;5068645;28;20558;-55
2023/11/16 12:36:54;;;;;;;13.20;7.70;;;;;;;;;;5069159;28;20054;-55
2023/11/16 12:39:20;;;;;;;12.35;7.20;;;;;;;;;;5061756;28;20029;-55
2023/11/16 12:41:46;;;;;;;13.05;7.60;;;;;;;;;;5068346;28;20020;-52
2023/11/16 12:44:12;;;;;;;13.07;7.60;;;;;;;;;;5067316;28;20090;-56
2023/11/16 12:46:38;;;;;;;13.40;8.25;;;;;;;;;;5069342;28;20114;-56
2023/11/16 12:49:05;;;;;;;13.38;8.10;;;;;;;;;;5069159;28;20048;-56
2023/11/16 12:51:31;;;;;;;12.68;7.38;;;;;;;;;;5050336;28;20029;-57
2023/11/16 12:53:57;;;;;;;13.18;7.85;;;;;;;;;;5061195;28;20106;-55
2023/11/16 12:56:23;;;;;;;12.90;7.50;;;;;;;;;;5069196;28;20106;-57
2023/11/16 12:58:49;;;;;;;12.48;7.20;;;;;;;;;;5069264;28;20483;-56
2023/11/16 13:01:15;;;;;;;11.75;6.82;;;;;;;;;;5059289;28;20028;-57
2023/11/16 13:03:42;;;;;;;12.07;7.07;;;;;;;;;;5057968;28;20096;-56
2023/11/16 13:06:09;;;;;;;12.00;7.00;;;;;;;;;;5069382;28;20050;-58
2023/11/16 13:08:37;;;;;;;12.30;7.20;;;;;;;;;;5069362;28;20051;-58
2023/11/16 13:11:03;;;;;;;11.60;6.80;;;;;;;;;;5068982;28;20027;-57
2023/11/16 13:13:29;;;;;;;11.27;6.60;;;;;;;;;;5069309;28;20058;-55
2023/11/16 13:15:55;;;;;;;11.68;6.80;;;;;;;;;;5069519;28;20036;-57
2023/11/16 13:18:21;;;;;;;12.40;7.32;;;;;;;;;;5068884;28;20535;-54
2023/11/16 13:20:48;;;;;;;12.10;7.00;;;;;;;;;;5068901;28;20027;-56
2023/11/16 13:23:14;;;;;;;11.85;6.90;;;;;;;;;;5062365;28;20056;-57
2023/11/16 13:25:40;;;;;;;11.98;6.95;;;;;;;;;;5069206;28;20085;-55
2023/11/16 13:28:06;;;;;;;12.10;7.07;;;;;;;;;;5069453;28;20175;-56
2023/11/16 13:30:38;;;;;;;16.63;11.77;;;;;;;;;;5073178;28;20052;-58
2023/11/16 13:33:05;;;;;;;11.82;6.85;;;;;;;;;;5072919;28;20165;-59
2023/11/16 13:35:31;;;;;;;11.90;7.00;;;;;;;;;;5073045;28;20016;-57
2023/11/16 13:37:57;;;;;;;12.32;7.80;;;;;;;;;;5073115;28;20025;-56
2023/11/16 13:40:23;;;;;;;11.25;6.60;;;;;;;;;;5072243;28;20440;-55
2023/11/16 13:42:50;;;;;;;11.70;6.80;;;;;;;;;;5072279;28;20025;-57
2023/11/16 13:45:20;;;;;;;11.30;6.60;;;;;;;;;;4699340;28;9999900;-57
2023/11/16 13:47:47;;;;;;;11.70;6.80;;;;;;;;;;5063038;28;20024;-55
2023/11/16 13:50:14;;;;;;;12.30;7.10;;;;;;;;;;5058874;28;20021;-59
2023/11/16 13:52:41;;;;;;;11.68;6.80;;;;;;;;;;5049695;28;20167;-59
2023/11/16 13:55:10;;;;;;;12.13;7.10;;;;;;;;;;5064355;28;20110;-58
2023/11/16 13:57:40;;;;;;;12.77;7.40;;;;;;;;;;5051544;28;20481;-58
2023/11/16 14:00:09;;;;;;;11.45;6.72;;;;;;;;;;5068926;28;20117;-58
2023/11/16 14:02:41;;;;;;;12.23;7.07;;;;;;;;;;5069185;28;20024;-58
2023/11/16 14:05:07;;;;;;;12.80;7.40;;;;;;;;;;5051218;28;20071;-59
2023/11/16 14:07:34;;;;;;;12.50;7.30;;;;;;;;;;5062401;28;20382;-55
2023/11/16 14:10:00;;;;;;;11.95;6.97;;;;;;;;;;5068777;28;20123;-53
2023/11/16 14:12:26;;;;;;;11.90;7.00;;;;;;;;;;5069587;28;20031;-57
2023/11/16 14:14:52;;;;;;;12.30;7.10;;;;;;;;;;5069241;28;20025;-57
2023/11/16 14:17:18;;;;;;;13.20;7.53;;;;;;;;;;5068814;28;20043;-57
2023/11/16 14:19:44;;;;;;;11.90;7.25;;;;;;;;;;5060227;28;20263;-55
2023/11/16 14:22:11;;;;;;;11.60;6.78;;;;;;;;;;5048647;28;20013;-56
2023/11/16 14:24:39;;;;;;;11.10;6.50;;;;;;;;;;5053478;28;20028;-57
2023/11/16 14:27:09;;;;;;;11.23;7.05;;;;;;;;;;5034802;28;20128;-58
2023/11/16 14:29:35;;;;;;;11.07;6.43;;;;;;;;;;5049886;28;20086;-58
2023/11/16 14:32:02;;;;;;;11.25;6.60;;;;;;;;;;5031999;28;20025;-59
2023/11/16 14:34:28;;;;;;;10.88;6.38;;;;;;;;;;5050583;28;20044;-57
2023/11/16 14:36:54;;;;;;;11.35;6.63;;;;;;;;;;5061287;28;20029;-55